sensor_id;sensor_type;location;lat;lon;timestamp;pressure;altitude;pressure_sealevel;temperature;humidity
48778;BME280;34578;0.000;0.000;2023-12-20T00:02:46;96758.09;;;17.11;45.75
48778;BME280;34578;0.000;0.000;2023-12-20T00:07:47;96772.44;;;17.14;48.28
48778;BME280;34578;0.000;0.000;2023-12-20T00:12:47;96765.69;;;17.11;46.15
48778;BME280;34578;0.000;0.000;2023-12-20T00:17:47;96760.59;;;17.10;45.54
48778;BME280;34578;0.000;0.000;2023-12-20T00:22:48;96743.75;;;17.12;46.11
48778;BME280;34578;0.000;0.000;2023-12-20T00:27:48;96731.94;;;17.11;46.94
48778;BME280;34578;0.000;0.000;2023-12-20T00:32:49;96748.81;;;17.12;46.28
48778;BME280;34578;0.000;0.000;2023-12-20T00:37:49;96751.34;;;17.10;48.29
48778;BME280;34578;0.000;0.000;2023-12-20T00:42:49;96760.59;;;17.10;51.10
48778;BME280;34578;0.000;0.000;2023-12-20T00:47:50;96737.78;;;17.04;45.31
48778;BME280;34578;0.000;0.000;2023-12-20T00:52:50;96742.88;;;17.08;48.34
48778;BME280;34578;0.000;0.000;2023-12-20T00:57:50;96733.63;;;17.09;51.62
48778;BME280;34578;0.000;0.000;2023-12-20T01:02:51;96737.00;;;17.08;48.76
48778;BME280;34578;0.000;0.000;2023-12-20T01:07:51;96734.47;;;17.08;46.73
48778;BME280;34578;0.000;0.000;2023-12-20T01:12:52;96733.63;;;17.09;49.96
48778;BME280;34578;0.000;0.000;2023-12-20T01:17:55;96742.03;;;17.08;48.32
48778;BME280;34578;0.000;0.000;2023-12-20T01:22:57;96728.56;;;17.06;48.32
48778;BME280;34578;0.000;0.000;2023-12-20T01:27:57;96742.03;;;17.08;46.86
48778;BME280;34578;0.000;0.000;2023-12-20T01:33:00;96734.44;;;17.03;44.91
48778;BME280;34578;0.000;0.000;2023-12-20T01:38:00;96739.50;;;17.08;45.81
48778;BME280;34578;0.000;0.000;2023-12-20T01:43:02;96745.41;;;17.07;46.92
48778;BME280;34578;0.000;0.000;2023-12-20T01:48:07;96750.44;;;17.04;47.79
48778;BME280;34578;0.000;0.000;2023-12-20T01:53:09;96766.47;;;17.07;48.48
48778;BME280;34578;0.000;0.000;2023-12-20T01:58:12;96761.44;;;17.06;47.90
48778;BME280;34578;0.000;0.000;2023-12-20T02:03:17;96766.50;;;17.09;46.16
48778;BME280;34578;0.000;0.000;2023-12-20T02:08:18;96758.06;;;17.07;45.93
48778;BME280;34578;0.000;0.000;2023-12-20T02:13:18;96755.53;;;17.07;45.46
48778;BME280;34578;0.000;0.000;2023-12-20T02:18:21;96750.47;;;17.07;48.40
48778;BME280;34578;0.000;0.000;2023-12-20T02:23:21;96754.66;;;17.05;49.23
48778;BME280;34578;0.000;0.000;2023-12-20T02:28:21;96748.78;;;17.06;46.63
48778;BME280;34578;0.000;0.000;2023-12-20T02:33:22;96745.41;;;17.07;45.38
48778;BME280;34578;0.000;0.000;2023-12-20T02:38:23;96741.19;;;17.06;48.39
48778;BME280;34578;0.000;0.000;2023-12-20T02:43:23;96748.78;;;17.06;47.85
48778;BME280;34578;0.000;0.000;2023-12-20T02:48:24;96729.34;;;17.00;47.24
48778;BME280;34578;0.000;0.000;2023-12-20T02:53:24;96742.88;;;17.05;50.96
48778;BME280;34578;0.000;0.000;2023-12-20T02:58:24;96742.00;;;17.05;49.12
48778;BME280;34578;0.000;0.000;2023-12-20T03:03:25;96747.06;;;17.05;48.96
48778;BME280;34578;0.000;0.000;2023-12-20T03:08:25;96747.94;;;17.05;47.22
48778;BME280;34578;0.000;0.000;2023-12-20T03:13:26;96757.19;;;17.05;51.88
48778;BME280;34578;0.000;0.000;2023-12-20T03:18:26;96760.59;;;17.07;52.43
48778;BME280;34578;0.000;0.000;2023-12-20T03:23:29;96762.25;;;17.05;52.47
48778;BME280;34578;0.000;0.000;2023-12-20T03:28:30;96767.31;;;17.05;51.20
48778;BME280;34578;0.000;0.000;2023-12-20T03:33:31;96777.41;;;17.05;51.90
48778;BME280;34578;0.000;0.000;2023-12-20T03:38:33;96788.38;;;17.04;51.19
48778;BME280;34578;0.000;0.000;2023-12-20T03:43:34;96785.00;;;17.03;52.69
48778;BME280;34578;0.000;0.000;2023-12-20T03:48:34;96779.09;;;17.00;52.15
48778;BME280;34578;0.000;0.000;2023-12-20T03:53:37;96790.91;;;17.04;51.86
48778;BME280;34578;0.000;0.000;2023-12-20T03:58:37;96793.44;;;17.05;52.95
48778;BME280;34578;0.000;0.000;2023-12-20T04:03:38;96795.97;;;17.05;52.77
48778;BME280;34578;0.000;0.000;2023-12-20T04:08:39;96796.84;;;17.06;52.69
48778;BME280;34578;0.000;0.000;2023-12-20T04:13:39;96797.66;;;17.05;52.90
48778;BME280;34578;0.000;0.000;2023-12-20T04:18:40;96792.59;;;17.02;52.23
48778;BME280;34578;0.000;0.000;2023-12-20T04:23:40;96794.28;;;17.03;52.56
48778;BME280;34578;0.000;0.000;2023-12-20T04:28:42;96794.28;;;17.04;53.16
48778;BME280;34578;0.000;0.000;2023-12-20T04:33:43;96773.97;;;16.94;52.82
48778;BME280;34578;0.000;0.000;2023-12-20T04:38:43;96796.72;;;16.92;53.17
48778;BME280;34578;0.000;0.000;2023-12-20T04:43:44;96826.34;;;17.07;53.36
48778;BME280;34578;0.000;0.000;2023-12-20T04:48:44;96833.09;;;17.06;52.77
48778;BME280;34578;0.000;0.000;2023-12-20T04:53:44;96838.16;;;17.08;53.56
48778;BME280;34578;0.000;0.000;2023-12-20T04:58:45;96830.56;;;17.08;53.53
48778;BME280;34578;0.000;0.000;2023-12-20T05:03:47;96811.97;;;17.03;52.97
48778;BME280;34578;0.000;0.000;2023-12-20T05:08:48;96812.88;;;17.08;53.08
48778;BME280;34578;0.000;0.000;2023-12-20T05:13:48;96826.38;;;17.10;53.18
48778;BME280;34578;0.000;0.000;2023-12-20T05:18:49;96839.00;;;17.08;53.35
48778;BME280;34578;0.000;0.000;2023-12-20T05:23:50;96831.41;;;17.08;53.06
48778;BME280;34578;0.000;0.000;2023-12-20T05:28:50;96841.53;;;17.10;53.68
48778;BME280;34578;0.000;0.000;2023-12-20T05:33:51;96836.47;;;17.10;53.17
48778;BME280;34578;0.000;0.000;2023-12-20T05:38:51;96848.28;;;17.09;52.68
48778;BME280;34578;0.000;0.000;2023-12-20T05:43:51;96854.19;;;17.13;49.75
48778;BME280;34578;0.000;0.000;2023-12-20T05:48:52;96861.78;;;17.10;53.49
48778;BME280;34578;0.000;0.000;2023-12-20T05:53:52;96844.94;;;17.12;51.15
48778;BME280;34578;0.000;0.000;2023-12-20T05:58:52;96851.69;;;17.13;54.07
48778;BME280;34578;0.000;0.000;2023-12-20T06:03:53;96859.25;;;17.13;52.24
48778;BME280;34578;0.000;0.000;2023-12-20T06:08:53;96867.72;;;17.15;54.54
48778;BME280;34578;0.000;0.000;2023-12-20T06:13:53;96876.13;;;17.12;55.03
48778;BME280;34578;0.000;0.000;2023-12-20T06:18:54;96882.88;;;17.10;55.38
48778;BME280;34578;0.000;0.000;2023-12-20T06:23:54;96880.38;;;17.15;53.59
48778;BME280;34578;0.000;0.000;2023-12-20T06:28:55;96886.22;;;17.09;53.87
48778;BME280;34578;0.000;0.000;2023-12-20T06:33:55;96885.19;;;16.86;49.50
48778;BME280;34578;0.000;0.000;2023-12-20T06:38:57;96881.88;;;16.95;53.65
48778;BME280;34578;0.000;0.000;2023-12-20T06:43:58;96902.19;;;17.01;54.81
48778;BME280;34578;0.000;0.000;2023-12-20T06:48:58;96903.91;;;17.03;53.73
48778;BME280;34578;0.000;0.000;2023-12-20T06:53:59;96910.66;;;17.06;53.87
48778;BME280;34578;0.000;0.000;2023-12-20T06:59:00;96914.00;;;17.03;54.26
48778;BME280;34578;0.000;0.000;2023-12-20T07:04:00;96920.78;;;17.06;53.84
48778;BME280;34578;0.000;0.000;2023-12-20T07:09:00;96932.53;;;17.04;53.52
48778;BME280;34578;0.000;0.000;2023-12-20T07:14:01;96940.13;;;17.04;53.45
48778;BME280;34578;0.000;0.000;2023-12-20T07:19:01;96940.97;;;17.03;53.42
48778;BME280;34578;0.000;0.000;2023-12-20T07:24:02;96946.03;;;17.03;53.08
48778;BME280;34578;0.000;0.000;2023-12-20T07:29:02;96944.34;;;17.02;53.62
48778;BME280;34578;0.000;0.000;2023-12-20T07:34:04;96962.03;;;16.99;53.25
48778;BME280;34578;0.000;0.000;2023-12-20T07:39:05;96964.56;;;16.99;53.18
48778;BME280;34578;0.000;0.000;2023-12-20T07:44:06;96969.63;;;16.99;52.31
48778;BME280;34578;0.000;0.000;2023-12-20T07:49:06;96974.66;;;16.99;53.46
48778;BME280;34578;0.000;0.000;2023-12-20T07:54:08;96978.84;;;16.97;53.62
48778;BME280;34578;0.000;0.000;2023-12-20T07:59:09;96978.84;;;16.95;51.27
48778;BME280;34578;0.000;0.000;2023-12-20T08:04:09;96985.63;;;16.98;52.84
48778;BME280;34578;0.000;0.000;2023-12-20T08:09:10;96982.22;;;16.97;52.12
48778;BME280;34578;0.000;0.000;2023-12-20T08:14:10;96986.44;;;16.97;52.56
48778;BME280;34578;0.000;0.000;2023-12-20T08:19:11;96994.03;;;16.95;52.38
48778;BME280;34578;0.000;0.000;2023-12-20T08:24:11;96996.56;;;16.95;51.13
48778;BME280;34578;0.000;0.000;2023-12-20T08:29:15;96997.38;;;16.96;52.79
48778;BME280;34578;0.000;0.000;2023-12-20T08:34:15;97003.31;;;16.96;52.55
48778;BME280;34578;0.000;0.000;2023-12-20T08:39:16;97003.28;;;16.95;51.91
48778;BME280;34578;0.000;0.000;2023-12-20T08:44:17;97001.50;;;16.88;51.57
48778;BME280;34578;0.000;0.000;2023-12-20T08:49:17;97011.69;;;16.92;52.08
48778;BME280;34578;0.000;0.000;2023-12-20T08:54:18;97018.47;;;16.93;51.31
48778;BME280;34578;0.000;0.000;2023-12-20T08:59:19;97005.72;;;16.86;49.88
48778;BME280;34578;0.000;0.000;2023-12-20T09:04:20;97019.28;;;16.94;51.67
48778;BME280;34578;0.000;0.000;2023-12-20T09:09:20;97026.03;;;16.93;51.72
48778;BME280;34578;0.000;0.000;2023-12-20T09:14:21;97024.28;;;16.89;52.01
48778;BME280;34578;0.000;0.000;2023-12-20T09:19:21;97040.34;;;16.93;51.21
48778;BME280;34578;0.000;0.000;2023-12-20T09:24:21;97036.97;;;16.92;51.46
48778;BME280;34578;0.000;0.000;2023-12-20T09:29:22;97048.78;;;16.92;52.05
48778;BME280;34578;0.000;0.000;2023-12-20T09:34:23;97056.41;;;16.93;49.77
48778;BME280;34578;0.000;0.000;2023-12-20T09:39:24;97059.72;;;16.92;51.28
48778;BME280;34578;0.000;0.000;2023-12-20T09:44:24;97048.78;;;16.92;52.06
48778;BME280;34578;0.000;0.000;2023-12-20T09:49:27;97053.84;;;16.92;51.05
48778;BME280;34578;0.000;0.000;2023-12-20T09:54:28;97052.97;;;16.91;52.74
48778;BME280;34578;0.000;0.000;2023-12-20T09:59:29;97041.19;;;16.92;51.73
48778;BME280;34578;0.000;0.000;2023-12-20T10:04:31;97044.56;;;16.91;52.18
48778;BME280;34578;0.000;0.000;2023-12-20T10:09:32;97055.50;;;16.90;51.58
48778;BME280;34578;0.000;0.000;2023-12-20T10:14:35;97050.44;;;16.90;52.87
48778;BME280;34578;0.000;0.000;2023-12-20T10:19:35;97045.38;;;16.90;51.22
48778;BME280;34578;0.000;0.000;2023-12-20T10:24:35;97044.56;;;16.92;51.69
48778;BME280;34578;0.000;0.000;2023-12-20T10:29:37;97052.16;;;16.91;51.01
48778;BME280;34578;0.000;0.000;2023-12-20T10:34:37;97041.16;;;16.90;49.58
48778;BME280;34578;0.000;0.000;2023-12-20T10:39:38;97041.16;;;16.89;51.86
48778;BME280;34578;0.000;0.000;2023-12-20T10:44:39;97030.97;;;16.83;51.37
48778;BME280;34578;0.000;0.000;2023-12-20T10:49:40;97027.63;;;16.87;50.61
48778;BME280;34578;0.000;0.000;2023-12-20T10:54:40;97021.72;;;16.85;50.42
48778;BME280;34578;0.000;0.000;2023-12-20T10:59:42;97038.63;;;16.89;50.69
48778;BME280;34578;0.000;0.000;2023-12-20T11:10:25;97031.03;;;16.87;48.95
48778;BME280;34578;0.000;0.000;2023-12-20T11:15:26;97027.63;;;16.87;48.61
48778;BME280;34578;0.000;0.000;2023-12-20T11:20:41;97033.59;;;16.89;50.91
48778;BME280;34578;0.000;0.000;2023-12-20T11:25:55;97024.31;;;16.92;51.89
48778;BME280;34578;0.000;0.000;2023-12-20T11:30:58;97017.53;;;16.88;52.72
48778;BME280;34578;0.000;0.000;2023-12-20T11:36:00;97024.34;;;16.94;52.94
48778;BME280;34578;0.000;0.000;2023-12-20T11:41:00;97031.84;;;16.85;49.46
48778;BME280;34578;0.000;0.000;2023-12-20T11:46:05;97020.97;;;16.95;50.87
48778;BME280;34578;0.000;0.000;2023-12-20T11:51:12;97016.81;;;16.98;51.84
48778;BME280;34578;0.000;0.000;2023-12-20T11:56:13;97015.13;;;16.99;52.49
48778;BME280;34578;0.000;0.000;2023-12-20T12:01:13;97002.50;;;17.00;52.38
48778;BME280;34578;0.000;0.000;2023-12-20T12:06:14;97007.56;;;17.02;50.75
48778;BME280;34578;0.000;0.000;2023-12-20T12:11:14;96986.44;;;16.97;52.09
48778;BME280;34578;0.000;0.000;2023-12-20T12:16:19;97000.00;;;17.03;51.58
48778;BME280;34578;0.000;0.000;2023-12-20T12:21:20;96993.31;;;17.07;50.58
48778;BME280;34578;0.000;0.000;2023-12-20T12:26:24;97002.56;;;17.09;51.43
48778;BME280;34578;0.000;0.000;2023-12-20T12:31:25;97003.38;;;17.04;49.49
48778;BME280;34578;0.000;0.000;2023-12-20T12:36:28;96995.00;;;17.11;52.61
48778;BME280;34578;0.000;0.000;2023-12-20T12:41:29;96996.75;;;17.15;48.62
48778;BME280;34578;0.000;0.000;2023-12-20T12:46:29;97001.81;;;17.15;48.29
48778;BME280;34578;0.000;0.000;2023-12-20T12:51:29;97006.03;;;17.17;51.43
48778;BME280;34578;0.000;0.000;2023-12-20T12:56:30;97006.91;;;17.18;48.51
48778;BME280;34578;0.000;0.000;2023-12-20T13:01:30;96994.25;;;17.18;52.06
48778;BME280;34578;0.000;0.000;2023-12-20T13:06:31;96998.44;;;17.17;48.89
48778;BME280;34578;0.000;0.000;2023-12-20T13:11:32;96978.16;;;17.13;48.88
48778;BME280;34578;0.000;0.000;2023-12-20T13:16:32;96977.41;;;17.18;49.10
48778;BME280;34578;0.000;0.000;2023-12-20T13:21:34;96994.25;;;17.19;48.68
48778;BME280;34578;0.000;0.000;2023-12-20T13:26:34;96993.41;;;17.22;48.34
48778;BME280;34578;0.000;0.000;2023-12-20T13:31:35;96996.81;;;17.22;48.23
48778;BME280;34578;0.000;0.000;2023-12-20T13:36:36;96992.63;;;17.23;48.17
48778;BME280;34578;0.000;0.000;2023-12-20T13:41:37;96994.31;;;17.24;47.58
48778;BME280;34578;0.000;0.000;2023-12-20T13:46:39;96994.84;;;16.96;47.46
48778;BME280;34578;0.000;0.000;2023-12-20T13:51:40;96974.72;;;17.05;48.24
48778;BME280;34578;0.000;0.000;2023-12-20T13:56:40;96997.59;;;17.15;48.95
48778;BME280;34578;0.000;0.000;2023-12-20T14:01:41;96995.09;;;17.17;48.03
48778;BME280;34578;0.000;0.000;2023-12-20T14:06:41;96990.84;;;17.17;48.53
48778;BME280;34578;0.000;0.000;2023-12-20T14:11:42;96995.94;;;17.19;48.17
48778;BME280;34578;0.000;0.000;2023-12-20T14:16:44;96985.81;;;17.19;46.82
48778;BME280;34578;0.000;0.000;2023-12-20T14:21:45;96991.72;;;17.21;46.70
48778;BME280;34578;0.000;0.000;2023-12-20T14:26:48;96984.97;;;17.20;48.06
48778;BME280;34578;0.000;0.000;2023-12-20T14:31:48;96976.59;;;17.24;48.54
48778;BME280;34578;0.000;0.000;2023-12-20T14:36:49;96969.84;;;17.23;47.02
48778;BME280;34578;0.000;0.000;2023-12-20T14:41:50;96965.59;;;17.20;47.08
48778;BME280;34578;0.000;0.000;2023-12-20T14:46:50;96968.16;;;17.26;48.47
48778;BME280;34578;0.000;0.000;2023-12-20T14:51:51;96974.91;;;17.23;48.25
48778;BME280;34578;0.000;0.000;2023-12-20T14:56:51;96974.91;;;17.26;47.23
48778;BME280;34578;0.000;0.000;2023-12-20T15:01:52;96973.22;;;17.26;47.59
48778;BME280;34578;0.000;0.000;2023-12-20T15:06:52;96976.63;;;17.27;47.99
48778;BME280;34578;0.000;0.000;2023-12-20T15:11:53;96991.78;;;17.27;48.01
48778;BME280;34578;0.000;0.000;2023-12-20T15:16:53;97001.06;;;17.28;48.15
48778;BME280;34578;0.000;0.000;2023-12-20T15:21:55;96990.97;;;17.28;48.03
48778;BME280;34578;0.000;0.000;2023-12-20T15:26:55;96990.13;;;17.27;47.87
48778;BME280;34578;0.000;0.000;2023-12-20T15:31:56;96969.03;;;17.28;48.23
48778;BME280;34578;0.000;0.000;2023-12-20T15:36:57;96963.13;;;17.28;48.37
48778;BME280;34578;0.000;0.000;2023-12-20T15:41:57;96963.97;;;17.30;48.47
48778;BME280;34578;0.000;0.000;2023-12-20T15:46:57;96963.16;;;17.31;48.86
48778;BME280;34578;0.000;0.000;2023-12-20T15:51:57;96971.56;;;17.27;47.69
48778;BME280;34578;0.000;0.000;2023-12-20T15:56:58;96980.00;;;17.29;48.38
48778;BME280;34578;0.000;0.000;2023-12-20T16:01:58;96980.00;;;17.29;49.29
48778;BME280;34578;0.000;0.000;2023-12-20T16:06:59;96978.31;;;17.28;46.82
48778;BME280;34578;0.000;0.000;2023-12-20T16:11:59;96963.97;;;17.27;47.16
48778;BME280;34578;0.000;0.000;2023-12-20T16:16:59;96963.16;;;17.31;46.95
48778;BME280;34578;0.000;0.000;2023-12-20T16:22:00;96977.50;;;17.30;50.51
48778;BME280;34578;0.000;0.000;2023-12-20T16:27:00;96976.63;;;17.30;49.34
48778;BME280;34578;0.000;0.000;2023-12-20T16:32:01;96976.63;;;17.27;52.05
48778;BME280;34578;0.000;0.000;2023-12-20T16:37:01;96963.97;;;17.27;53.50
48778;BME280;34578;0.000;0.000;2023-12-20T16:42:02;96980.00;;;17.29;52.86
48778;BME280;34578;0.000;0.000;2023-12-20T16:47:02;96972.41;;;17.29;53.30
48778;BME280;34578;0.000;0.000;2023-12-20T16:52:03;96973.25;;;17.28;53.57
48778;BME280;34578;0.000;0.000;2023-12-20T16:57:04;96981.66;;;17.25;52.81
48778;BME280;34578;0.000;0.000;2023-12-20T17:02:04;96991.78;;;17.27;53.26
48778;BME280;34578;0.000;0.000;2023-12-20T17:07:05;96990.94;;;17.26;53.90
48778;BME280;34578;0.000;0.000;2023-12-20T17:12:06;96990.13;;;17.29;53.78
48778;BME280;34578;0.000;0.000;2023-12-20T17:17:08;96994.28;;;17.22;50.74
48778;BME280;34578;0.000;0.000;2023-12-20T17:22:08;96991.78;;;17.27;53.92
48778;BME280;34578;0.000;0.000;2023-12-20T17:27:09;96988.44;;;17.28;53.66
48778;BME280;34578;0.000;0.000;2023-12-20T17:32:10;96991.78;;;17.27;54.36
48778;BME280;34578;0.000;0.000;2023-12-20T17:37:10;96996.00;;;17.26;54.75
48778;BME280;34578;0.000;0.000;2023-12-20T17:42:11;96988.38;;;17.23;49.83
48778;BME280;34578;0.000;0.000;2023-12-20T17:47:11;96997.72;;;17.29;52.59
48778;BME280;34578;0.000;0.000;2023-12-20T17:52:11;97005.31;;;17.29;54.15
48778;BME280;34578;0.000;0.000;2023-12-20T17:57:12;97002.78;;;17.29;54.73
48778;BME280;34578;0.000;0.000;2023-12-20T18:02:12;97007.81;;;17.29;55.08
48778;BME280;34578;0.000;0.000;2023-12-20T18:07:12;97007.81;;;17.29;54.99
48778;BME280;34578;0.000;0.000;2023-12-20T18:12:13;97026.41;;;17.29;54.36
48778;BME280;34578;0.000;0.000;2023-12-20T18:17:14;97015.41;;;17.29;49.26
48778;BME280;34578;0.000;0.000;2023-12-20T18:22:14;97022.19;;;17.30;48.32
48778;BME280;34578;0.000;0.000;2023-12-20T18:27:15;97010.41;;;17.32;47.72
48778;BME280;34578;0.000;0.000;2023-12-20T18:32:16;97024.81;;;17.36;48.19
48778;BME280;34578;0.000;0.000;2023-12-20T18:37:16;97022.28;;;17.36;54.36
48778;BME280;34578;0.000;0.000;2023-12-20T18:42:16;97020.59;;;17.38;49.01
48778;BME280;34578;0.000;0.000;2023-12-20T18:47:17;97018.94;;;17.38;48.47
48778;BME280;34578;0.000;0.000;2023-12-20T18:52:17;97006.28;;;17.38;54.01
48778;BME280;34578;0.000;0.000;2023-12-20T18:57:17;96985.16;;;17.38;49.57
48778;BME280;34578;0.000;0.000;2023-12-20T19:02:18;96978.41;;;17.37;55.08
48778;BME280;34578;0.000;0.000;2023-12-20T19:07:18;96988.50;;;17.35;55.02
48778;BME280;34578;0.000;0.000;2023-12-20T19:12:18;96980.03;;;17.32;49.47
48778;BME280;34578;0.000;0.000;2023-12-20T19:17:19;96996.97;;;17.36;53.36
48778;BME280;34578;0.000;0.000;2023-12-20T19:22:20;96987.69;;;17.38;52.45
48778;BME280;34578;0.000;0.000;2023-12-20T19:27:20;96982.63;;;17.38;55.22
48778;BME280;34578;0.000;0.000;2023-12-20T19:32:21;96949.69;;;17.35;55.77
48778;BME280;34578;0.000;0.000;2023-12-20T19:37:21;96947.16;;;17.35;54.84
48778;BME280;34578;0.000;0.000;2023-12-20T19:42:22;96939.56;;;17.35;50.90
48778;BME280;34578;0.000;0.000;2023-12-20T19:47:23;96932.84;;;17.35;50.27
48778;BME280;34578;0.000;0.000;2023-12-20T19:52:23;96919.38;;;17.36;54.53
48778;BME280;34578;0.000;0.000;2023-12-20T19:57:24;96914.31;;;17.38;52.29
48778;BME280;34578;0.000;0.000;2023-12-20T20:02:24;96911.72;;;17.33;50.94
48778;BME280;34578;0.000;0.000;2023-12-20T20:07:25;96927.84;;;17.40;52.72
48778;BME280;34578;0.000;0.000;2023-12-20T20:12:25;96916.78;;;17.32;50.04
48778;BME280;34578;0.000;0.000;2023-12-20T20:17:26;96911.78;;;17.39;50.02
48778;BME280;34578;0.000;0.000;2023-12-20T20:22:26;96905.88;;;17.39;54.89
48778;BME280;34578;0.000;0.000;2023-12-20T20:27:27;96883.09;;;17.39;55.30
48778;BME280;34578;0.000;0.000;2023-12-20T20:32:29;96872.13;;;17.37;54.74
48778;BME280;34578;0.000;0.000;2023-12-20T20:37:29;96860.31;;;17.36;55.40
48778;BME280;34578;0.000;0.000;2023-12-20T20:42:30;96869.59;;;17.37;55.25
48778;BME280;34578;0.000;0.000;2023-12-20T20:47:30;96874.63;;;17.35;54.52
48778;BME280;34578;0.000;0.000;2023-12-20T20:52:31;96882.25;;;17.37;54.96
48778;BME280;34578;0.000;0.000;2023-12-20T20:57:31;96876.34;;;17.36;54.19
48778;BME280;34578;0.000;0.000;2023-12-20T21:02:32;96878.88;;;17.38;54.30
48778;BME280;34578;0.000;0.000;2023-12-20T21:07:32;96893.22;;;17.36;54.20
48778;BME280;34578;0.000;0.000;2023-12-20T21:12:36;96888.16;;;17.36;54.69
48778;BME280;34578;0.000;0.000;2023-12-20T21:17:38;96879.69;;;17.35;54.15
48778;BME280;34578;0.000;0.000;2023-12-20T21:22:43;96884.72;;;17.32;53.97
48778;BME280;34578;0.000;0.000;2023-12-20T21:27:44;96867.84;;;17.34;53.88
48778;BME280;34578;0.000;0.000;2023-12-20T21:32:44;96853.53;;;17.35;52.88
48778;BME280;34578;0.000;0.000;2023-12-20T21:37:45;96858.59;;;17.35;50.32
48778;BME280;34578;0.000;0.000;2023-12-20T21:42:45;96856.03;;;17.33;50.57
48778;BME280;34578;0.000;0.000;2023-12-20T21:47:46;96850.13;;;17.34;50.38
48778;BME280;34578;0.000;0.000;2023-12-20T21:52:47;96833.22;;;17.29;51.46
48778;BME280;34578;0.000;0.000;2023-12-20T21:57:48;96826.53;;;17.31;53.34
48778;BME280;34578;0.000;0.000;2023-12-20T22:02:48;96822.28;;;17.28;53.87
48778;BME280;34578;0.000;0.000;2023-12-20T22:07:49;96824.81;;;17.30;53.74
48778;BME280;34578;0.000;0.000;2023-12-20T22:12:51;96821.44;;;17.29;53.15
48778;BME280;34578;0.000;0.000;2023-12-20T22:17:52;96818.03;;;17.26;53.64
48778;BME280;34578;0.000;0.000;2023-12-20T22:22:52;96823.13;;;17.29;54.19
48778;BME280;34578;0.000;0.000;2023-12-20T22:27:52;96823.13;;;17.29;55.03
48778;BME280;34578;0.000;0.000;2023-12-20T22:32:52;96824.81;;;17.30;55.57
48778;BME280;34578;0.000;0.000;2023-12-20T22:37:53;96803.72;;;17.29;55.94
48778;BME280;34578;0.000;0.000;2023-12-20T22:42:54;96792.75;;;17.29;56.10
48778;BME280;34578;0.000;0.000;2023-12-20T22:47:54;96792.75;;;17.29;55.78
48778;BME280;34578;0.000;0.000;2023-12-20T22:52:55;96786.00;;;17.28;56.29
48778;BME280;34578;0.000;0.000;2023-12-20T22:57:55;96780.94;;;17.28;56.49
48778;BME280;34578;0.000;0.000;2023-12-20T23:02:55;96771.66;;;17.24;56.38
48778;BME280;34578;0.000;0.000;2023-12-20T23:07:56;96789.38;;;17.27;56.23
48778;BME280;34578;0.000;0.000;2023-12-20T23:12:56;96780.94;;;17.28;56.01
48778;BME280;34578;0.000;0.000;2023-12-20T23:17:57;96769.97;;;17.26;56.42
48778;BME280;34578;0.000;0.000;2023-12-20T23:22:58;96762.38;;;17.26;56.49
48778;BME280;34578;0.000;0.000;2023-12-20T23:27:58;96737.09;;;17.26;55.56
48778;BME280;34578;0.000;0.000;2023-12-20T23:32:58;96721.06;;;17.24;56.18
48778;BME280;34578;0.000;0.000;2023-12-20T23:37:59;96715.16;;;17.25;56.30
48778;BME280;34578;0.000;0.000;2023-12-20T23:42:59;96703.34;;;17.24;56.69
48778;BME280;34578;0.000;0.000;2023-12-20T23:47:59;96672.97;;;17.25;56.79
48778;BME280;34578;0.000;0.000;2023-12-20T23:53:00;96667.91;;;17.24;56.34
48778;BME280;34578;0.000;0.000;2023-12-20T23:58:00;96664.56;;;17.25;56.73
